Catawissa, PA

10:52 AM EST on December 18, 2014 (GMT -0500)
Between Centralia and Aristes | Change Station
CLOSE
Current Station
Personal Weather Station
Location: Aristes, PA
Elevation: 1673 ft
Nearby Weather Stations

Elev 1673 ft 40.81 °N, 76.33 °W | Updated 2 minutes ago

Overcast
Overcast
32.4 °F
Feels Like 30 °F
N
3.1
Wind Variable Wind from WNW
Gusts 11.4 mph

Today
High -- | Low -- °F
--% Chance of Precip.
Yesterday
High -- | Low -- °F
Precip. -- in
7:24 AM 4:39 PM
Waning Crescent, 14% visible
Pressure 30.11 in
Visibility 10.0 miles
Clouds Overcast 3500 ft
Windchill 30 °F
Dew Point 12 °F
Humidity 42%
Rainfall 0.00 in
Snow Depth Not available.
UV 0 out of 12
Pollen .10 out of 12
Air Quality Not available.
Flu Activity Not available.
METAR KSEG 181453Z AUTO 31009KT 10SM OVC035 02/M06 A3010 RMK AO2 SLP195 T00171056 50007

More Conditions Fewer Conditions

Pressure 30.11 in
Visibility 10.0 miles
Clouds Overcast 3500 ft
Windchill 30 °F
Dew Point 12 °F
Humidity 42%
Rainfall 0.00 in
Snow Depth Not available.
UV 0 out of 12
Pollen .10 out of 12
Air Quality Not available.
Flu Activity Not available.
METAR KSEG 181453Z AUTO 31009KT 10SM OVC035 02/M06 A3010 RMK AO2 SLP195 T00171056 50007

More Conditions Fewer Conditions

10-Day Weather Forecast

Almanac

Astronomy

Dec. 18, 2014 Rise Set
Actual Time
Civil Twilight
Nautical Twilight
Astronomical Twilight
Moon
Length of Visible Light
Length of Day
Tomorrow will be .
, % of the Moon is Illuminated

Today's Extremes

State Highs State Lows

Community

WunderPhotos

Upload Photos

1,778,947 photos uploaded!

WunderBlogs® & News

Nearby

Air Quality

  Air Quality AQ Index Pollutant
Not available.

Snow Depth

Station Depth Elevation

Earthquake Activity

City Distance Mag. Time & Date
Minimum magnitude displayed is 2.5.

Coastal Water Temperatures

Place Temperature

Nearby Weather Stations